Time;durP1;ratioP1;P1;durP2;ratioP2;P2;SDS_P1;SDS_P2;PMS_P1;PMS_P2;Temp;Humidity;BMP_temperature;BMP_pressure;BME280_temperature;BME280_humidity;BME280_pressure;Samples;Min_cycle;Max_cycle;Signal;HPM_P1;HPM_P2
2021/06/08 00:01:59;;;;;;;6.33;5.63;;;;;;;14.42;67.61;99593.00;5018429;28;20321;-79
2021/06/08 00:04:26;;;;;;;6.10;5.50;;;;;;;14.47;67.64;99594.97;5001255;28;20664;-85
2021/06/08 00:06:53;;;;;;;5.50;5.10;;;;;;;14.38;67.90;99591.88;5017484;28;20305;-85
2021/06/08 00:09:20;;;;;;;6.00;5.50;;;;;;;14.44;67.89;99603.53;4985635;28;20679;-87
2021/06/08 00:11:47;;;;;;;5.70;5.10;;;;;;;14.35;67.86;99594.22;5001564;28;20518;-87
2021/06/08 00:14:14;;;;;;;6.03;5.43;;;;;;;14.32;68.01;99603.63;5017646;28;20237;-84
2021/06/08 00:16:41;;;;;;;5.60;5.20;;;;;;;14.26;68.05;99599.19;5018010;28;20383;-88
2021/06/08 00:19:07;;;;;;;6.27;5.77;;;;;;;14.27;68.08;99608.09;5017763;28;20625;-87
2021/06/08 00:21:34;;;;;;;6.00;5.40;;;;;;;14.26;67.80;99603.75;5001679;28;20260;-85
2021/06/08 00:24:01;;;;;;;6.20;5.70;;;;;;;14.22;67.94;99600.75;5001126;28;20327;-78
2021/06/08 00:26:28;;;;;;;6.40;5.90;;;;;;;14.22;67.88;99605.31;4998110;28;20250;-86
2021/06/08 00:28:54;;;;;;;6.10;5.50;;;;;;;14.26;67.91;99612.66;5014255;28;20283;-87
2021/06/08 00:31:21;;;;;;;6.17;5.57;;;;;;;14.27;67.83;99610.78;5015604;28;20262;-86
2021/06/08 00:33:50;;;;;;;6.27;5.67;;;;;;;14.20;68.08;99602.03;5014400;28;20230;-87
2021/06/08 00:36:17;;;;;;;6.03;5.53;;;;;;;14.27;67.96;99613.47;5014231;28;20294;-85
2021/06/08 00:38:43;;;;;;;6.20;5.70;;;;;;;14.16;67.92;99600.88;5014435;28;20305;-84
2021/06/08 00:41:11;;;;;;;5.97;5.47;;;;;;;14.21;68.05;99623.34;4998038;28;20258;-88
2021/06/08 00:43:38;;;;;;;6.10;5.60;;;;;;;14.13;67.63;99607.59;5014337;28;20233;-82
2021/06/08 00:46:05;;;;;;;5.83;5.43;;;;;;;14.14;67.73;99605.72;4981538;28;20316;-87
2021/06/08 00:48:32;;;;;;;6.63;5.57;;;;;;;14.16;67.51;99607.09;5015303;28;20226;-88
2021/06/08 00:50:59;;;;;;;7.53;5.47;;;;;;;14.10;67.37;99599.97;4997786;28;20254;-87
2021/06/08 00:53:25;;;;;;;6.60;5.90;;;;;;;14.11;67.52;99610.53;4997923;28;20546;-85
2021/06/08 00:55:52;;;;;;;6.33;5.73;;;;;;;14.09;68.62;99609.94;4997905;28;20230;-84
2021/06/08 00:58:19;;;;;;;6.37;5.77;;;;;;;13.99;68.91;99600.88;4997445;28;20232;-88
2021/06/08 01:00:46;;;;;;;6.87;5.53;;;;;;;13.93;68.91;99599.13;5014304;28;20225;-86
2021/06/08 01:03:13;;;;;;;6.30;5.77;;;;;;;13.88;68.91;99594.47;4997821;28;20283;-85
2021/06/08 01:05:39;;;;;;;6.87;5.93;;;;;;;13.82;68.87;99587.34;5014104;28;20237;-88
2021/06/08 01:08:06;;;;;;;6.87;5.60;;;;;;;13.85;68.75;99588.78;4997458;28;20233;-82
2021/06/08 01:10:33;;;;;;;6.43;5.93;;;;;;;13.87;68.62;99600.09;5016947;28;20317;-84
2021/06/08 01:13:00;;;;;;;7.00;5.97;;;;;;;13.79;68.34;99587.84;5018534;28;20228;-88
2021/06/08 01:15:26;;;;;;;5.97;5.47;;;;;;;13.80;68.39;99599.44;5017643;28;20596;-78
2021/06/08 01:17:53;;;;;;;6.87;6.27;;;;;;;13.78;68.67;99598.84;5001263;28;20286;-88
2021/06/08 01:20:20;;;;;;;5.90;5.40;;;;;;;13.81;68.31;99598.38;5017264;28;20253;-78
2021/06/08 01:22:47;;;;;;;6.37;5.77;;;;;;;13.77;68.40;99595.34;5018639;28;20648;-88
2021/06/08 01:25:13;;;;;;;6.30;5.70;;;;;;;13.73;68.22;99585.28;5001007;28;20257;-85
2021/06/08 01:27:41;;;;;;;5.93;5.53;;;;;;;13.73;68.54;99594.19;5017207;28;20536;-87
2021/06/08 01:30:09;;;;;;;6.07;5.37;;;;;;;13.68;68.78;99591.41;5016747;28;20239;-84
2021/06/08 01:32:39;;;;;;;6.10;5.60;;;;;;;13.72;68.64;99592.56;5017483;28;20257;-88
2021/06/08 01:35:06;;;;;;;6.37;5.87;;;;;;;13.71;68.56;99596.31;5001184;28;20261;-86
2021/06/08 01:37:33;;;;;;;6.53;5.93;;;;;;;13.76;68.53;99598.28;5001135;28;20260;-88
2021/06/08 01:40:00;;;;;;;6.33;5.80;;;;;;;13.75;68.47;99591.28;5017204;28;20237;-88
2021/06/08 01:42:27;;;;;;;7.13;6.30;;;;;;;13.69;68.34;99595.72;5000586;28;20227;-88
2021/06/08 01:44:54;;;;;;;6.40;5.90;;;;;;;13.71;68.63;99604.41;5017034;28;20291;-82
2021/06/08 01:47:20;;;;;;;8.03;6.37;;;;;;;13.70;68.82;99588.47;5017196;28;20584;-87
2021/06/08 01:49:47;;;;;;;6.80;6.20;;;;;;;13.71;68.52;99587.44;5018140;28;20263;-86
2021/06/08 01:52:32;;;;;;;6.50;6.00;;;;;;;13.77;68.13;99594.50;5016670;28;20347;-87
2021/06/08 01:55:13;;;;;;;6.57;6.00;;;;;;;13.76;68.62;99587.53;5017822;28;20675;-89
2021/06/08 01:57:49;;;;;;;7.00;6.40;;;;;;;13.71;68.42;99588.25;5016926;28;20269;-88
2021/06/08 02:00:20;;;;;;;6.80;6.20;;;;;;;13.76;68.39;99601.00;5017583;28;20339;-82
2021/06/08 02:02:50;;;;;;;6.73;6.13;;;;;;;13.77;68.51;99606.09;5000695;28;20320;-86
2021/06/08 02:05:25;;;;;;;6.63;6.10;;;;;;;13.78;67.97;99609.63;4984606;28;20227;-87
2021/06/08 02:07:57;;;;;;;6.37;5.80;;;;;;;13.68;68.15;99599.47;5017718;28;20251;-88
2021/06/08 02:10:33;;;;;;;6.53;5.93;;;;;;;13.70;68.91;99597.38;5000094;28;20232;-80
2021/06/08 02:13:30;;;;;;;6.10;5.67;;;;;;;13.65;68.87;99600.78;5000389;28;20251;-89
2021/06/08 02:16:15;;;;;;;6.13;5.63;;;;;;;13.63;68.41;99599.38;5016643;28;20262;-85
2021/06/08 02:18:44;;;;;;;6.27;5.70;;;;;;;13.65;68.49;99605.34;4999893;28;20284;-88
2021/06/08 02:21:13;;;;;;;6.97;6.00;;;;;;;13.56;68.47;99587.94;4999994;28;20239;-86
2021/06/08 02:23:40;;;;;;;6.50;6.00;;;;;;;13.57;68.33;99601.19;5000080;28;20324;-88
2021/06/08 02:26:07;;;;;;;6.90;6.20;;;;;;;13.53;68.27;99605.38;4999508;28;20255;-87
2021/06/08 02:28:37;;;;;;;6.53;5.93;;;;;;;13.47;68.58;99595.59;5016323;28;20282;-87
2021/06/08 02:31:07;;;;;;;7.00;6.37;;;;;;;13.48;68.71;99591.84;5016091;28;20240;-88
2021/06/08 02:33:35;;;;;;;6.00;5.33;;;;;;;13.51;68.47;99602.13;5016435;28;20263;-86
2021/06/08 02:36:04;;;;;;;6.00;5.60;;;;;;;13.51;68.55;99601.31;4999504;28;20234;-80
2021/06/08 02:38:35;;;;;;;6.60;6.10;;;;;;;13.45;68.90;99605.75;4999922;28;20570;-88
2021/06/08 02:41:04;;;;;;;6.60;6.00;;;;;;;13.43;69.04;99602.50;5015933;28;20232;-86
2021/06/08 02:43:32;;;;;;;6.53;6.03;;;;;;;13.42;69.14;99600.03;4999809;28;20581;-88
2021/06/08 02:45:59;;;;;;;6.50;6.00;;;;;;;13.45;68.95;99613.84;5015840;28;20513;-83
2021/06/08 02:48:26;;;;;;;6.83;6.20;;;;;;;13.41;69.37;99618.06;5015512;28;20320;-88
2021/06/08 02:50:54;;;;;;;6.60;6.00;;;;;;;13.43;69.29;99615.16;4999460;28;20223;-88
2021/06/08 02:53:24;;;;;;;7.47;6.30;;;;;;;13.36;69.25;99611.75;4995314;28;20233;-88
2021/06/08 02:55:51;;;;;;;6.60;6.10;;;;;;;13.40;68.99;99612.91;4999307;28;20255;-84
2021/06/08 02:58:20;;;;;;;7.67;6.60;;;;;;;13.40;68.99;99611.03;5014143;28;20302;-87
2021/06/08 03:00:47;;;;;;;6.87;6.07;;;;;;;13.38;68.84;99610.47;4999140;28;20694;-87
2021/06/08 03:03:23;;;;;;;6.17;5.60;;;;;;;13.37;68.94;99603.47;5015400;28;20259;-88
2021/06/08 03:05:55;;;;;;;6.80;6.20;;;;;;;13.46;68.59;99614.66;4999537;28;20286;-86
2021/06/08 03:08:30;;;;;;;6.27;5.87;;;;;;;13.51;68.83;99620.97;5016305;28;20290;-87
2021/06/08 03:10:57;;;;;;;6.27;5.80;;;;;;;13.41;68.89;99610.00;4999380;28;20239;-87
2021/06/08 03:13:25;;;;;;;6.00;5.60;;;;;;;13.54;68.63;99616.97;4999227;28;20322;-87
2021/06/08 03:15:59;;;;;;;6.77;6.17;;;;;;;13.60;68.40;99632.16;4999198;28;20265;-88
2021/06/08 03:18:28;;;;;;;7.60;6.40;;;;;;;13.56;68.65;99617.56;4982923;28;20244;-88
2021/06/08 03:21:01;;;;;;;6.57;6.07;;;;;;;13.67;68.28;99630.13;5015208;28;20253;-86
2021/06/08 03:23:31;;;;;;;6.97;6.47;;;;;;;13.72;68.01;99624.84;5015310;28;20231;-87
2021/06/08 03:25:59;;;;;;;6.10;5.60;;;;;;;13.70;68.09;99632.38;4982755;28;20244;-88
2021/06/08 03:28:28;;;;;;;6.70;6.20;;;;;;;13.75;68.12;99637.84;5014999;28;20287;-86
2021/06/08 03:30:55;;;;;;;6.33;5.73;;;;;;;13.70;68.21;99628.88;5015259;28;20662;-83
2021/06/08 03:33:23;;;;;;;6.47;5.83;;;;;;;13.79;67.98;99640.88;5014786;28;20525;-82
2021/06/08 03:35:50;;;;;;;7.60;6.00;;;;;;;13.79;67.67;99632.81;5015221;28;20243;-86
2021/06/08 03:38:18;;;;;;;6.77;6.07;;;;;;;13.89;67.41;99647.28;4998470;28;20271;-86
2021/06/08 03:40:45;;;;;;;6.40;5.80;;;;;;;13.90;66.96;99634.66;4998884;28;20261;-87
2021/06/08 03:43:12;;;;;;;6.70;6.10;;;;;;;13.98;67.29;99645.84;5015077;28;20303;-88
2021/06/08 03:45:40;;;;;;;6.90;5.70;;;;;;;14.01;66.80;99639.16;5015093;28;20237;-88
2021/06/08 03:48:07;;;;;;;6.67;6.07;;;;;;;14.08;67.10;99651.44;4998339;28;20242;-88
2021/06/08 03:50:34;;;;;;;6.17;5.60;;;;;;;14.16;66.62;99649.38;4998568;28;20227;-85
2021/06/08 03:53:03;;;;;;;6.57;5.97;;;;;;;14.28;66.67;99656.34;5015187;28;20255;-88
2021/06/08 03:55:29;;;;;;;6.03;5.60;;;;;;;14.35;66.13;99653.50;4998573;28;20228;-85
2021/06/08 03:57:59;;;;;;;6.50;5.90;;;;;;;15.10;64.54;99642.31;5015848;28;20242;-82
2021/06/08 04:00:26;;;;;;;6.63;5.43;;;;;;;16.95;59.01;99659.97;5014797;28;20706;-88
2021/06/08 04:02:53;;;;;;;6.30;5.50;;;;;;;18.45;53.57;99642.69;4998504;28;20714;-85
2021/06/08 04:05:20;;;;;;;6.13;5.63;;;;;;;19.30;51.00;99645.63;5014965;28;20233;-88
2021/06/08 04:07:48;;;;;;;5.63;5.13;;;;;;;19.38;50.42;99646.94;5014963;28;20253;-82
2021/06/08 04:10:18;;;;;;;5.63;5.17;;;;;;;19.51;50.05;99647.19;4998697;28;20227;-86
2021/06/08 04:12:45;;;;;;;6.67;5.50;;;;;;;19.61;49.51;99649.88;5014635;28;20301;-80
2021/06/08 04:15:13;;;;;;;6.07;5.57;;;;;;;19.81;48.76;99659.03;5014371;28;20350;-87
2021/06/08 04:17:40;;;;;;;5.50;5.07;;;;;;;19.80;48.78;99633.75;5014590;28;20701;-87
2021/06/08 04:20:09;;;;;;;5.77;5.20;;;;;;;20.06;48.35;99648.81;5013981;28;21169;-83
2021/06/08 04:22:38;;;;;;;6.40;5.47;;;;;;;20.15;47.73;99641.72;4998196;28;20301;-79
2021/06/08 04:25:07;;;;;;;5.93;5.40;;;;;;;20.70;46.78;99645.16;4998127;28;20238;-87
2021/06/08 04:27:35;;;;;;;6.37;5.77;;;;;;;21.45;44.71;99650.97;4982071;28;20254;-83
2021/06/08 04:30:06;;;;;;;6.80;5.87;;;;;;;21.94;43.29;99737.91;5014063;28;20308;-78
2021/06/08 04:32:33;;;;;;;5.93;5.43;;;;;;;22.86;41.34;99754.69;4981753;28;20321;-83
2021/06/08 04:35:00;;;;;;;7.00;5.73;;;;;;;22.92;41.29;99670.72;4998111;28;20234;-79
2021/06/08 04:37:27;;;;;;;6.13;5.63;;;;;;;21.98;43.30;99653.59;4998123;28;20354;-85
2021/06/08 04:39:53;;;;;;;39.60;26.23;;;;;;;21.27;44.86;99635.34;4998143;28;20250;-86
2021/06/08 04:42:20;;;;;;;8.43;7.73;;;;;;;20.86;45.69;99634.91;5013934;28;20566;-82
2021/06/08 04:44:48;;;;;;;7.37;6.67;;;;;;;20.59;46.79;99652.56;5018047;28;20273;-81
2021/06/08 04:47:16;;;;;;;7.53;6.40;;;;;;;20.37;47.88;99657.66;5001688;28;20254;-86
2021/06/08 04:49:43;;;;;;;7.87;7.07;;;;;;;20.09;48.98;99645.56;5018066;28;20223;-86
2021/06/08 04:52:10;;;;;;;6.33;5.80;;;;;;;19.98;49.39;99651.31;5001079;28;20231;-84
2021/06/08 04:54:37;;;;;;;6.23;5.63;;;;;;;19.87;49.76;99644.34;5018009;28;20374;-79
2021/06/08 04:57:05;;;;;;;6.40;5.90;;;;;;;19.85;49.97;99655.47;5017736;28;20226;-80
2021/06/08 04:59:54;;;;;;;6.23;5.73;;;;;;;19.85;50.57;99654.66;5017718;28;20244;-79
2021/06/08 05:02:58;;;;;;;6.83;6.13;;;;;;;19.92;50.62;99653.28;5001069;28;20301;-82
2021/06/08 05:05:27;;;;;;;6.53;5.93;;;;;;;19.90;50.52;99641.84;4978723;28;20227;-80
2021/06/08 05:08:10;;;;;;;7.50;6.33;;;;;;;19.99;50.81;99647.53;4985027;28;20228;-81
2021/06/08 05:10:45;;;;;;;7.67;6.67;;;;;;;20.13;50.96;99654.78;5001174;28;20293;-83
2021/06/08 05:13:12;;;;;;;7.33;6.63;;;;;;;20.21;50.81;99645.19;5017711;28;20322;-84
2021/06/08 05:15:39;;;;;;;7.30;5.77;;;;;;;20.34;50.88;99660.94;5001436;28;20250;-83
2021/06/08 05:18:08;;;;;;;6.80;5.83;;;;;;;20.42;50.69;99649.44;5017203;28;20522;-82
2021/06/08 05:20:39;;;;;;;8.17;5.80;;;;;;;20.60;50.21;99656.13;5000971;28;20226;-79
2021/06/08 05:23:06;;;;;;;8.07;5.90;;;;;;;20.71;49.98;99651.41;5017373;28;20696;-85
2021/06/08 05:25:33;;;;;;;8.60;6.20;;;;;;;20.81;50.09;99654.03;5017307;28;20570;-79
2021/06/08 05:28:00;;;;;;;7.70;6.10;;;;;;;20.91;49.81;99643.03;5017259;28;20697;-82
2021/06/08 05:30:27;;;;;;;10.07;6.10;;;;;;;21.02;49.99;99653.56;5000862;28;20240;-84
2021/06/08 05:32:54;;;;;;;8.63;5.77;;;;;;;21.21;49.64;99653.66;5000872;28;20258;-79
2021/06/08 05:35:26;;;;;;;6.83;6.23;;;;;;;21.37;49.45;99663.28;5000929;28;20256;-79
2021/06/08 05:37:53;;;;;;;8.77;5.63;;;;;;;21.47;49.15;99663.19;5001147;28;20315;-78
2021/06/08 05:40:26;;;;;;;5.87;5.27;;;;;;;21.70;48.90;99663.44;5000082;28;20308;-80
2021/06/08 05:42:52;;;;;;;7.43;5.33;;;;;;;21.89;48.24;99665.09;5016127;28;20234;-83
2021/06/08 05:45:20;;;;;;;7.43;5.40;;;;;;;22.01;48.11;99672.91;5017012;28;20236;-83
2021/06/08 05:47:47;;;;;;;6.37;5.80;;;;;;;22.10;48.00;99662.97;5017796;28;20243;-84
2021/06/08 05:50:14;;;;;;;7.40;5.60;;;;;;;22.31;48.12;99679.84;5016663;28;20230;-78
2021/06/08 05:52:41;;;;;;;7.07;5.83;;;;;;;22.33;47.81;99685.81;5000243;28;20225;-81
2021/06/08 05:55:10;;;;;;;8.30;5.87;;;;;;;22.40;47.60;99676.16;5016181;28;20255;-85
2021/06/08 05:57:37;;;;;;;6.23;5.63;;;;;;;22.63;46.99;99679.88;5000298;28;20326;-78
2021/06/08 06:00:06;;;;;;;6.40;5.70;;;;;;;22.84;46.54;99685.88;5016207;28;20316;-78
2021/06/08 06:02:38;;;;;;;8.55;5.80;;;;;;;22.99;46.04;99688.34;5016899;28;20231;-83
2021/06/08 06:05:06;;;;;;;6.65;5.85;;;;;;;22.96;45.92;99678.00;5000238;28;20261;-83
2021/06/08 06:07:33;;;;;;;7.60;5.28;;;;;;;23.08;45.35;99681.09;5016348;28;20309;-81
2021/06/08 06:10:00;;;;;;;8.05;6.15;;;;;;;22.96;46.26;99688.94;5000286;28;20637;-81
2021/06/08 06:12:27;;;;;;;6.60;5.72;;;;;;;23.04;45.49;99684.72;4999758;28;20224;-81
2021/06/08 06:15:02;;;;;;;9.90;5.90;;;;;;;22.77;46.37;99679.97;5000080;28;20629;-84
2021/06/08 06:17:37;;;;;;;10.47;6.10;;;;;;;23.05;45.73;99687.13;4979636;28;20274;-81
2021/06/08 06:20:12;;;;;;;30.05;6.95;;;;;;;23.15;45.33;99676.03;4996765;28;20230;-81
2021/06/08 06:22:39;;;;;;;45.45;8.23;;;;;;;23.15;45.29;99691.59;4984870;28;20247;-84
2021/06/08 06:25:08;;;;;;;35.70;7.35;;;;;;;23.44;45.04;99683.16;4996217;28;20677;-82
2021/06/08 06:27:39;;;;;;;19.48;6.32;;;;;;;23.16;44.09;99694.03;5016042;28;20237;-82
2021/06/08 06:30:08;;;;;;;8.45;5.60;;;;;;;23.14;43.40;99692.75;5015244;28;20244;-84
2021/06/08 06:32:35;;;;;;;15.65;6.13;;;;;;;23.15;44.08;99680.69;5015749;28;20563;-84
2021/06/08 06:35:07;;;;;;;11.02;6.10;;;;;;;23.09;43.97;99690.91;5015717;28;20241;-84
2021/06/08 06:37:35;;;;;;;10.50;6.13;;;;;;;23.30;42.96;99683.13;4999553;28;20299;-84
2021/06/08 06:40:05;;;;;;;7.13;5.72;;;;;;;23.57;43.34;99682.38;5015158;28;20612;-85
2021/06/08 06:42:40;;;;;;;10.25;5.78;;;;;;;23.76;42.62;99687.72;5015684;28;20304;-83
2021/06/08 06:45:09;;;;;;;13.65;5.60;;;;;;;23.91;43.63;99685.50;5015589;28;20284;-81
2021/06/08 06:47:36;;;;;;;11.63;5.97;;;;;;;23.72;43.40;99684.00;4999553;28;20231;-85
2021/06/08 06:50:06;;;;;;;10.85;5.60;;;;;;;23.82;43.45;99681.88;4982756;28;20234;-83
2021/06/08 06:52:33;;;;;;;7.80;5.80;;;;;;;23.67;43.99;99676.69;4983856;28;20235;-85
2021/06/08 06:55:00;;;;;;;6.05;5.50;;;;;;;23.95;43.67;99680.22;4979706;28;20651;-82
2021/06/08 06:57:27;;;;;;;8.48;5.47;;;;;;;24.30;41.97;99671.28;4995667;28;20227;-85
2021/06/08 06:59:54;;;;;;;8.27;5.72;;;;;;;24.21;42.35;99669.56;4995487;28;20247;-80
2021/06/08 07:02:23;;;;;;;7.07;5.75;;;;;;;24.54;41.70;99673.72;4979036;28;20333;-85
2021/06/08 07:04:50;;;;;;;7.65;5.25;;;;;;;24.71;41.34;99662.88;4979510;28;20257;-84
2021/06/08 07:07:20;;;;;;;9.07;5.95;;;;;;;24.58;41.85;99661.03;4962368;28;20232;-83
2021/06/08 07:09:48;;;;;;;10.90;6.03;;;;;;;24.92;41.66;99687.84;4995503;28;20227;-84
2021/06/08 07:12:21;;;;;;;6.65;6.05;;;;;;;24.58;41.95;99679.38;4979072;28;20240;-83
2021/06/08 07:14:49;;;;;;;8.57;6.07;;;;;;;24.73;40.98;99670.81;4979342;28;20500;-84
2021/06/08 07:17:17;;;;;;;6.93;6.25;;;;;;;25.18;40.82;99677.06;4995349;28;20232;-81
2021/06/08 07:19:44;;;;;;;6.60;6.15;;;;;;;25.11;40.99;99679.44;4979148;28;20577;-83
2021/06/08 07:22:11;;;;;;;6.72;6.07;;;;;;;25.30;40.08;99671.78;4994971;28;20236;-84
2021/06/08 07:24:40;;;;;;;6.47;5.88;;;;;;;25.39;40.12;99675.38;4978957;28;20245;-84
2021/06/08 07:27:13;;;;;;;9.10;6.05;;;;;;;25.18;40.02;99672.38;5013916;28;20236;-83
2021/06/08 07:29:41;;;;;;;7.07;6.40;;;;;;;24.95;39.17;99662.59;4999018;28;20242;-82
2021/06/08 07:32:51;;;;;;;7.60;5.80;;;;;;;25.06;38.98;99676.81;4982006;28;20281;-80
2021/06/08 07:35:22;;;;;;;6.90;6.20;;;;;;;24.91;37.93;99654.19;5001235;28;20269;-82
2021/06/08 07:37:50;;;;;;;6.25;5.63;;;;;;;25.00;38.04;99667.94;4998383;28;20234;-81
2021/06/08 07:40:21;;;;;;;7.20;5.85;;;;;;;25.32;38.86;99659.41;5014393;28;20254;-82
2021/06/08 07:43:01;;;;;;;6.50;5.95;;;;;;;25.09;37.86;99667.97;5014676;28;20588;-83
2021/06/08 07:45:35;;;;;;;6.70;6.10;;;;;;;25.21;38.26;99665.44;4998462;28;20246;-84
2021/06/08 07:48:05;;;;;;;6.93;6.10;;;;;;;25.56;37.39;99660.97;4997813;28;20677;-80
2021/06/08 07:50:34;;;;;;;8.18;5.85;;;;;;;25.76;38.11;99658.44;4998277;28;20269;-83
2021/06/08 07:53:02;;;;;;;8.90;6.05;;;;;;;26.18;36.78;99667.06;5014356;28;20249;-82
2021/06/08 07:55:30;;;;;;;6.90;5.95;;;;;;;26.26;36.23;99664.38;4998240;28;20677;-83
2021/06/08 07:57:57;;;;;;;7.80;6.22;;;;;;;26.36;36.44;99659.69;5014345;28;20240;-82
2021/06/08 08:00:24;;;;;;;6.80;5.95;;;;;;;26.37;35.99;99653.03;4977797;28;20231;-83
2021/06/08 08:02:55;;;;;;;6.60;6.00;;;;;;;26.29;35.73;99666.47;4995599;28;20232;-80
2021/06/08 08:05:23;;;;;;;6.63;6.00;;;;;;;26.51;35.87;99657.25;4995705;28;20264;-83
2021/06/08 08:07:50;;;;;;;7.18;6.47;;;;;;;26.69;35.00;99669.84;4997923;28;20254;-80
2021/06/08 08:10:21;;;;;;;8.10;6.05;;;;;;;26.65;35.47;99659.81;5013927;28;20238;-80
2021/06/08 08:12:48;;;;;;;6.70;6.07;;;;;;;26.83;35.55;99666.91;5015062;28;20234;-82
2021/06/08 08:15:16;;;;;;;9.60;5.93;;;;;;;26.94;35.59;99659.16;5014175;28;20705;-81
2021/06/08 08:17:43;;;;;;;8.23;5.97;;;;;;;27.07;35.09;99663.66;4998675;28;20357;-82
2021/06/08 08:20:10;;;;;;;7.00;6.30;;;;;;;27.04;34.75;99659.63;5003757;28;20271;-81
2021/06/08 08:22:37;;;;;;;6.97;6.32;;;;;;;27.15;34.81;99662.84;5020704;28;20234;-83
2021/06/08 08:25:06;;;;;;;6.78;6.15;;;;;;;27.24;33.92;99665.56;5020234;28;20234;-84
2021/06/08 08:27:33;;;;;;;7.65;6.05;;;;;;;27.17;34.06;99649.53;5020681;28;20587;-84
2021/06/08 08:29:59;;;;;;;6.70;6.07;;;;;;;27.51;33.48;99654.13;5020846;28;20218;-81
2021/06/08 08:32:26;;;;;;;7.70;6.13;;;;;;;27.61;33.98;99663.97;5020306;28;20309;-79
2021/06/08 08:34:53;;;;;;;6.32;5.70;;;;;;;27.66;34.31;99661.84;5020425;28;20231;-81
2021/06/08 08:37:19;;;;;;;6.43;5.93;;;;;;;27.21;33.75;99664.25;5020463;28;20642;-81
2021/06/08 08:39:48;;;;;;;6.53;5.88;;;;;;;27.51;34.17;99654.13;5020607;28;20292;-84
2021/06/08 08:42:19;;;;;;;6.78;5.70;;;;;;;27.51;34.07;99641.19;5003693;28;20597;-84
2021/06/08 08:44:46;;;;;;;7.60;5.72;;;;;;;27.77;33.89;99654.81;5004467;28;20553;-82
2021/06/08 08:47:14;;;;;;;7.18;6.47;;;;;;;27.62;32.87;99647.13;5004155;28;20230;-85
2021/06/08 08:49:41;;;;;;;8.98;6.10;;;;;;;27.69;33.17;99650.16;5020496;28;20321;-82
2021/06/08 08:52:08;;;;;;;6.95;6.25;;;;;;;27.90;33.00;99658.47;5019903;28;20254;-85
2021/06/08 08:54:36;;;;;;;6.53;5.60;;;;;;;27.98;32.56;99646.59;5020405;28;20254;-85
2021/06/08 08:57:03;;;;;;;6.50;6.00;;;;;;;28.04;33.25;99653.53;5020460;28;20281;-82
2021/06/08 08:59:30;;;;;;;6.05;5.45;;;;;;;28.13;32.83;99640.53;5003610;28;20250;-83
2021/06/08 09:01:58;;;;;;;6.65;5.88;;;;;;;28.28;31.99;99659.19;5004139;28;20269;-86
2021/06/08 09:04:25;;;;;;;6.30;5.20;;;;;;;27.58;29.94;99638.72;5003864;28;20234;-82
2021/06/08 09:06:52;;;;;;;6.13;5.57;;;;;;;27.75;30.82;99653.53;5004172;28;20227;-84
2021/06/08 09:09:19;;;;;;;5.88;5.10;;;;;;;27.65;32.13;99648.41;5020150;28;20293;-85
2021/06/08 09:11:46;;;;;;;5.75;5.13;;;;;;;27.59;31.72;99636.78;5020072;28;20237;-80
2021/06/08 09:14:14;;;;;;;5.68;5.28;;;;;;;27.61;32.47;99645.50;5019733;28;20291;-82
2021/06/08 09:16:40;;;;;;;5.85;5.35;;;;;;;27.69;30.96;99643.84;5019371;28;20277;-83
2021/06/08 09:19:09;;;;;;;6.85;6.15;;;;;;;27.41;31.49;99641.53;5020033;28;20309;-83
2021/06/08 09:21:39;;;;;;;6.22;5.53;;;;;;;28.08;31.02;99646.19;5020011;28;20238;-78
2021/06/08 09:24:25;;;;;;;6.30;5.72;;;;;;;27.97;31.06;99651.28;5003509;28;20630;-83
2021/06/08 09:26:52;;;;;;;6.28;5.78;;;;;;;27.90;30.73;99639.19;5023479;28;20245;-84
2021/06/08 09:29:38;;;;;;;6.18;5.57;;;;;;;28.35;30.98;99639.38;5022053;28;20234;-80
2021/06/08 09:32:21;;;;;;;6.05;5.55;;;;;;;28.45;30.07;99628.75;5020036;28;20226;-80
2021/06/08 09:34:53;;;;;;;9.45;5.75;;;;;;;28.32;30.09;99629.81;5037593;28;20225;-82
2021/06/08 09:37:37;;;;;;;6.07;5.45;;;;;;;28.29;29.32;99633.25;5020538;28;20242;-79
2021/06/08 09:40:21;;;;;;;7.30;5.65;;;;;;;27.89;30.07;99640.34;5019466;28;20241;-82
2021/06/08 09:43:04;;;;;;;5.80;5.20;;;;;;;28.09;30.13;99634.00;5020228;28;20226;-80
2021/06/08 09:45:45;;;;;;;6.22;5.63;;;;;;;28.07;29.42;99636.31;5004066;28;20229;-81
2021/06/08 09:48:13;;;;;;;6.32;5.32;;;;;;;28.37;28.89;99631.56;5019574;28;20268;-78
2021/06/08 09:50:42;;;;;;;6.20;5.70;;;;;;;28.29;29.20;99632.44;5019782;28;20222;-78
2021/06/08 09:53:15;;;;;;;6.82;5.90;;;;;;;28.58;29.51;99634.28;5019878;28;20226;-82
2021/06/08 09:56:06;;;;;;;5.70;5.15;;;;;;;28.51;28.28;99632.06;5019897;28;20276;-80
2021/06/08 09:58:35;;;;;;;7.20;5.78;;;;;;;28.81;28.34;99630.84;5019685;28;20233;-84
2021/06/08 10:01:05;;;;;;;6.05;5.50;;;;;;;29.14;27.98;99635.50;5019637;28;20529;-78
2021/06/08 10:03:36;;;;;;;5.80;5.40;;;;;;;29.06;28.80;99628.16;5037420;28;20260;-84
2021/06/08 10:06:30;;;;;;;6.40;5.82;;;;;;;29.06;28.49;99640.00;5018964;28;20238;-84
2021/06/08 10:08:58;;;;;;;6.43;5.88;;;;;;;28.90;28.26;99633.50;4997765;28;20222;-81
2021/06/08 10:11:28;;;;;;;5.97;5.47;;;;;;;29.27;27.82;99628.84;5000170;28;20258;-80
2021/06/08 10:14:19;;;;;;;5.95;5.55;;;;;;;29.62;27.78;99623.72;5000055;28;20230;-81
2021/06/08 10:16:59;;;;;;;6.32;5.72;;;;;;;29.89;26.58;99625.81;5022082;28;20568;-80
2021/06/08 10:19:27;;;;;;;5.72;5.22;;;;;;;30.12;25.69;99612.28;5002910;28;20309;-80
2021/06/08 10:21:54;;;;;;;6.35;5.55;;;;;;;30.21;26.01;99626.75;5019267;28;20684;-81
2021/06/08 10:24:26;;;;;;;6.45;5.13;;;;;;;30.11;26.28;99617.00;5018775;28;20265;-84
2021/06/08 10:26:55;;;;;;;5.60;5.10;;;;;;;29.75;25.70;99615.09;5019574;28;20221;-86
2021/06/08 10:29:24;;;;;;;6.32;5.57;;;;;;;29.54;26.92;99616.34;5019196;28;20285;-82
2021/06/08 10:31:52;;;;;;;6.93;5.35;;;;;;;29.14;27.41;99618.97;5019532;28;20261;-85
2021/06/08 10:34:34;;;;;;;6.18;5.75;;;;;;;29.49;26.33;99617.38;5004826;28;20661;-83
2021/06/08 10:37:02;;;;;;;6.22;5.57;;;;;;;29.33;27.85;99613.72;5019383;28;20544;-83
2021/06/08 10:39:29;;;;;;;6.28;5.72;;;;;;;29.25;27.66;99620.94;5002890;28;20529;-84
2021/06/08 10:41:58;;;;;;;6.20;5.60;;;;;;;29.92;26.97;99604.94;4986614;28;20230;-85
2021/06/08 10:44:27;;;;;;;6.22;5.50;;;;;;;30.34;26.64;99614.50;5018899;28;20280;-85
2021/06/08 10:47:02;;;;;;;5.95;5.47;;;;;;;30.69;27.07;99617.50;5002883;28;20276;-83
2021/06/08 10:49:42;;;;;;;7.50;5.38;;;;;;;31.18;26.39;99617.22;5019124;28;20287;-86
2021/06/08 10:52:11;;;;;;;11.82;5.80;;;;;;;31.43;25.53;99607.56;5018539;28;20233;-85
2021/06/08 10:54:40;;;;;;;6.13;5.63;;;;;;;31.76;24.65;99615.50;5018925;28;20230;-84
2021/06/08 10:57:13;;;;;;;6.07;5.57;;;;;;;32.01;25.14;99614.06;4986409;28;20242;-81
2021/06/08 11:00:00;;;;;;;5.90;5.40;;;;;;;32.11;23.27;99605.22;5003243;28;20633;-81
2021/06/08 11:02:46;;;;;;;6.15;5.72;;;;;;;32.28;23.60;99604.00;5002029;28;20232;-86
2021/06/08 11:05:15;;;;;;;8.00;5.95;;;;;;;31.91;24.67;99606.34;5002898;28;20230;-81
2021/06/08 11:07:50;;;;;;;6.60;6.05;;;;;;;31.23;25.38;99601.16;5002441;28;20318;-82
2021/06/08 11:10:26;;;;;;;6.32;5.82;;;;;;;30.07;26.11;99593.19;5035608;28;20238;-81
2021/06/08 11:13:22;;;;;;;6.93;6.03;;;;;;;30.53;26.54;99603.63;5036090;28;20221;-85
2021/06/08 11:15:50;;;;;;;6.05;5.60;;;;;;;30.88;24.79;99584.44;4993871;28;20226;-87
2021/06/08 11:18:19;;;;;;;6.75;6.13;;;;;;;31.17;24.21;99601.78;5018220;28;20334;-80
2021/06/08 11:21:12;;;;;;;9.32;5.82;;;;;;;30.92;25.13;99599.16;5018337;28;20645;-85
2021/06/08 11:23:43;;;;;;;6.45;5.72;;;;;;;31.05;24.17;99577.78;5011658;28;20273;-86
2021/06/08 11:26:12;;;;;;;6.13;5.70;;;;;;;31.57;24.38;99585.78;5007148;28;20238;-85
2021/06/08 11:28:42;;;;;;;5.80;5.40;;;;;;;31.82;22.58;99584.38;4982918;28;20227;-80
2021/06/08 11:31:10;;;;;;;6.43;5.93;;;;;;;31.42;23.63;99573.56;4998587;28;20304;-82
2021/06/08 11:33:39;;;;;;;5.57;5.22;;;;;;;32.10;23.12;99586.22;4982508;28;20238;-84
2021/06/08 11:36:18;;;;;;;6.15;5.63;;;;;;;32.26;23.39;99581.38;4981955;28;20234;-85
2021/06/08 11:38:46;;;;;;;6.38;5.70;;;;;;;31.35;22.31;99572.59;4998330;28;20234;-80
2021/06/08 11:41:17;;;;;;;6.05;5.50;;;;;;;31.55;23.08;99570.66;4998650;28;20654;-82
2021/06/08 11:43:45;;;;;;;6.20;5.70;;;;;;;32.34;23.28;99575.59;4982446;28;20309;-84
2021/06/08 11:46:28;;;;;;;5.90;5.43;;;;;;;32.98;21.68;99562.97;4997896;28;20260;-85
2021/06/08 11:49:13;;;;;;;6.38;5.88;;;;;;;32.58;22.50;99563.41;4998233;28;20630;-80